Hlavní strana
METAR-TAF:

METAR-TAF

Letiště :

Bacon County Airport

Alma, Georgie, Spojené státy americké

zeměpisná šířka: 31-32-10N, zeměpisná délka: 082-30-24W, výška: 61 m

Aktuální stav počasí

Zpráva byla vytvořena před 1 hodinou a 6 minutami, v 07:53 UTC
vítr z různých směrů 3 kt
Teplota 9°C
Vlhkost vzduchu 87%
Tlak 1025 hPa
Viditelnost: 16.1 km
Jasno

METAR: KAMG 080753Z AUTO VRB03KT 10SM CLR 09/07 A3026 RMK AO2 SLP246 T00890072

Čas: 03:59 (08:59 UTC)


TAF: chybějící

Stav a předpovědi počasí z více než 4 000 letišť (zprávy METAR a TAF).

Červené a žluté tečky na mapě představují dostupné meteorologické stanice.

Když kurzor umístíte na tečku, zobrazí se název stanice.

Pak kliknutím zobrazíte stav a předpověď počasí.

Chcete-li změnit mapu, kliknutím na zelené tlačítko se znaménkem +mapu přiblížíte, kliknutím na zelené tlačítko se znaménkem – mapu oddálíte a kliknutím na zelené šipky přejdete na sousední mapy.


METAR-TAF: